sensor_id;sensor_type;location;lat;lon;timestamp;pressure;altitude;pressure_sealevel;temperature;humidity
55077;BME280;40971;44.702;11.030;2022-10-16T00:00:28;101768.09;;;16.98;100.00
55077;BME280;40971;44.702;11.030;2022-10-16T00:02:53;101775.06;;;16.99;100.00
55077;BME280;40971;44.702;11.030;2022-10-16T00:05:19;101748.06;;;16.81;100.00
55077;BME280;40971;44.702;11.030;2022-10-16T00:07:44;101754.66;;;16.74;100.00
55077;BME280;40971;44.702;11.030;2022-10-16T00:10:10;101752.22;;;16.71;100.00
55077;BME280;40971;44.702;11.030;2022-10-16T00:12:35;101787.53;;;16.82;100.00
55077;BME280;40971;44.702;11.030;2022-10-16T00:15:00;101778.88;;;16.80;100.00
55077;BME280;40971;44.702;11.030;2022-10-16T00:17:26;101779.78;;;16.79;100.00
55077;BME280;40971;44.702;11.030;2022-10-16T00:19:51;101761.81;;;16.72;100.00
55077;BME280;40971;44.702;11.030;2022-10-16T00:22:16;101782.31;;;16.95;100.00
55077;BME280;40971;44.702;11.030;2022-10-16T00:24:42;101753.78;;;16.88;100.00
55077;BME280;40971;44.702;11.030;2022-10-16T00:27:07;101774.25;;;16.84;100.00
55077;BME280;40971;44.702;11.030;2022-10-16T00:29:33;101764.53;;;16.56;100.00
55077;BME280;40971;44.702;11.030;2022-10-16T00:31:59;101770.75;;;16.55;100.00
55077;BME280;40971;44.702;11.030;2022-10-16T00:34:24;101790.19;;;16.68;100.00
55077;BME280;40971;44.702;11.030;2022-10-16T00:36:50;101740.34;;;16.35;100.00
55077;BME280;40971;44.702;11.030;2022-10-16T00:39:15;101778.28;;;16.61;100.00
55077;BME280;40971;44.702;11.030;2022-10-16T00:41:41;101778.28;;;16.61;100.00
55077;BME280;40971;44.702;11.030;2022-10-16T00:47:31;101790.25;;;16.52;100.00
55077;BME280;40971;44.702;11.030;2022-10-16T00:52:41;101784.34;;;16.35;100.00
55077;BME280;40971;44.702;11.030;2022-10-16T00:55:09;101783.28;;;16.37;100.00
55077;BME280;40971;44.702;11.030;2022-10-16T00:57:35;101773.03;;;16.33;100.00
55077;BME280;40971;44.702;11.030;2022-10-16T01:00:03;101746.09;;;16.13;100.00
55077;BME280;40971;44.702;11.030;2022-10-16T01:02:29;101773.22;;;16.30;100.00
55077;BME280;40971;44.702;11.030;2022-10-16T01:04:54;101732.44;;;16.07;100.00
55077;BME280;40971;44.702;11.030;2022-10-16T01:07:30;101746.97;;;16.14;100.00
55077;BME280;40971;44.702;11.030;2022-10-16T01:10:30;101787.06;;;16.33;100.00
55077;BME280;40971;44.702;11.030;2022-10-16T01:15:56;101782.53;;;16.35;100.00
55077;BME280;40971;44.702;11.030;2022-10-16T01:18:32;101747.81;;;16.14;100.00
55077;BME280;40971;44.702;11.030;2022-10-16T01:21:02;101750.53;;;16.13;100.00
55077;BME280;40971;44.702;11.030;2022-10-16T01:28:57;101814.72;;;16.40;100.00
55077;BME280;40971;44.702;11.030;2022-10-16T01:31:30;101799.50;;;16.31;100.00
55077;BME280;40971;44.702;11.030;2022-10-16T01:36:35;101807.22;;;16.34;100.00
55077;BME280;40971;44.702;11.030;2022-10-16T01:39:03;101803.81;;;16.32;100.00
55077;BME280;40971;44.702;11.030;2022-10-16T01:41:33;101801.66;;;16.39;100.00
55077;BME280;40971;44.702;11.030;2022-10-16T01:44:10;101809.09;;;16.46;100.00
55077;BME280;40971;44.702;11.030;2022-10-16T01:46:39;101806.25;;;16.35;100.00
55077;BME280;40971;44.702;11.030;2022-10-16T01:49:08;101813.44;;;16.33;100.00
55077;BME280;40971;44.702;11.030;2022-10-16T01:51:35;101800.84;;;16.08;100.00
55077;BME280;40971;44.702;11.030;2022-10-16T01:54:02;101819.13;;;16.11;100.00
55077;BME280;40971;44.702;11.030;2022-10-16T01:56:29;101808.97;;;16.19;100.00
55077;BME280;40971;44.702;11.030;2022-10-16T01:59:21;101808.50;;;16.27;100.00
55077;BME280;40971;44.702;11.030;2022-10-16T02:01:52;101812.38;;;16.21;100.00
55077;BME280;40971;44.702;11.030;2022-10-16T02:04:42;101813.59;;;16.16;100.00
55077;BME280;40971;44.702;11.030;2022-10-16T02:07:09;101808.88;;;16.21;100.00
55077;BME280;40971;44.702;11.030;2022-10-16T02:09:35;101807.28;;;16.18;100.00
55077;BME280;40971;44.702;11.030;2022-10-16T02:12:08;101787.59;;;16.10;100.00
55077;BME280;40971;44.702;11.030;2022-10-16T02:14:37;101802.78;;;16.20;100.00
55077;BME280;40971;44.702;11.030;2022-10-16T02:17:11;101806.72;;;16.28;100.00
55077;BME280;40971;44.702;11.030;2022-10-16T02:19:37;101758.78;;;16.07;100.00
55077;BME280;40971;44.702;11.030;2022-10-16T02:22:04;101730.72;;;15.91;100.00
55077;BME280;40971;44.702;11.030;2022-10-16T02:24:43;101797.88;;;16.14;100.00
55077;BME280;40971;44.702;11.030;2022-10-16T02:30:19;101793.78;;;15.94;100.00
55077;BME280;40971;44.702;11.030;2022-10-16T02:32:47;101803.22;;;15.99;100.00
55077;BME280;40971;44.702;11.030;2022-10-16T02:35:17;101799.63;;;16.00;100.00
55077;BME280;40971;44.702;11.030;2022-10-16T02:37:44;101798.28;;;15.92;100.00
55077;BME280;40971;44.702;11.030;2022-10-16T02:40:11;101805.34;;;15.92;100.00
55077;BME280;40971;44.702;11.030;2022-10-16T02:42:38;101800.91;;;15.92;100.00
55077;BME280;40971;44.702;11.030;2022-10-16T02:45:06;101806.88;;;15.96;100.00
55077;BME280;40971;44.702;11.030;2022-10-16T02:47:32;101750.47;;;15.54;100.00
55077;BME280;40971;44.702;11.030;2022-10-16T02:49:58;101817.00;;;15.88;100.00
55077;BME280;40971;44.702;11.030;2022-10-16T02:52:24;101754.22;;;15.50;100.00
55077;BME280;40971;44.702;11.030;2022-10-16T02:54:49;101817.53;;;15.79;100.00
55077;BME280;40971;44.702;11.030;2022-10-16T02:57:14;101769.22;;;15.34;100.00
55077;BME280;40971;44.702;11.030;2022-10-16T02:59:40;101814.19;;;15.61;100.00
55077;BME280;40971;44.702;11.030;2022-10-16T03:02:06;101834.72;;;15.70;100.00
55077;BME280;40971;44.702;11.030;2022-10-16T03:04:31;101801.09;;;15.59;100.00
55077;BME280;40971;44.702;11.030;2022-10-16T03:06:57;101815.91;;;15.62;100.00
55077;BME280;40971;44.702;11.030;2022-10-16T03:09:22;101828.97;;;15.63;100.00
55077;BME280;40971;44.702;11.030;2022-10-16T03:11:47;101799.84;;;15.51;100.00
55077;BME280;40971;44.702;11.030;2022-10-16T03:14:13;101823.97;;;15.59;100.00
55077;BME280;40971;44.702;11.030;2022-10-16T03:16:39;101825.91;;;15.55;100.00
55077;BME280;40971;44.702;11.030;2022-10-16T03:19:04;101811.56;;;15.45;100.00
55077;BME280;40971;44.702;11.030;2022-10-16T03:21:30;101775.34;;;15.19;100.00
55077;BME280;40971;44.702;11.030;2022-10-16T03:23:55;101829.09;;;15.30;100.00
55077;BME280;40971;44.702;11.030;2022-10-16T03:26:20;101820.00;;;15.04;100.00
55077;BME280;40971;44.702;11.030;2022-10-16T03:28:46;101817.88;;;14.95;100.00
55077;BME280;40971;44.702;11.030;2022-10-16T03:31:11;101759.53;;;14.56;100.00
55077;BME280;40971;44.702;11.030;2022-10-16T03:33:37;101783.66;;;14.64;100.00
55077;BME280;40971;44.702;11.030;2022-10-16T03:36:02;101814.88;;;14.86;100.00
55077;BME280;40971;44.702;11.030;2022-10-16T03:38:28;101826.69;;;14.94;100.00
55077;BME280;40971;44.702;11.030;2022-10-16T03:40:53;101795.44;;;14.72;100.00
55077;BME280;40971;44.702;11.030;2022-10-16T03:43:19;101814.13;;;14.84;100.00
55077;BME280;40971;44.702;11.030;2022-10-16T03:45:44;101822.00;;;14.68;100.00
55077;BME280;40971;44.702;11.030;2022-10-16T03:48:10;101825.88;;;14.61;100.00
55077;BME280;40971;44.702;11.030;2022-10-16T03:50:36;101826.44;;;14.50;100.00
55077;BME280;40971;44.702;11.030;2022-10-16T03:53:02;101832.63;;;14.32;100.00
55077;BME280;40971;44.702;11.030;2022-10-16T03:55:28;101826.72;;;14.11;100.00
55077;BME280;40971;44.702;11.030;2022-10-16T03:57:53;101845.94;;;14.29;100.00
55077;BME280;40971;44.702;11.030;2022-10-16T04:00:18;101841.81;;;14.40;100.00
55077;BME280;40971;44.702;11.030;2022-10-16T04:02:44;101819.97;;;14.23;100.00
55077;BME280;40971;44.702;11.030;2022-10-16T04:05:10;101848.88;;;14.23;100.00
55077;BME280;40971;44.702;11.030;2022-10-16T04:07:35;101805.84;;;13.91;100.00
55077;BME280;40971;44.702;11.030;2022-10-16T04:10:01;101794.22;;;13.79;100.00
55077;BME280;40971;44.702;11.030;2022-10-16T04:12:26;101837.16;;;14.12;100.00
55077;BME280;40971;44.702;11.030;2022-10-16T04:14:52;101856.06;;;14.19;100.00
55077;BME280;40971;44.702;11.030;2022-10-16T04:17:17;101847.56;;;14.14;100.00
55077;BME280;40971;44.702;11.030;2022-10-16T04:19:43;101871.03;;;14.34;100.00
55077;BME280;40971;44.702;11.030;2022-10-16T04:22:08;101825.47;;;14.01;100.00
55077;BME280;40971;44.702;11.030;2022-10-16T04:24:34;101859.47;;;14.04;100.00
55077;BME280;40971;44.702;11.030;2022-10-16T04:26:59;101860.31;;;13.87;100.00
55077;BME280;40971;44.702;11.030;2022-10-16T04:29:25;101858.53;;;13.88;100.00
55077;BME280;40971;44.702;11.030;2022-10-16T04:31:50;101881.63;;;13.98;100.00
55077;BME280;40971;44.702;11.030;2022-10-16T04:34:16;101843.16;;;13.63;100.00
55077;BME280;40971;44.702;11.030;2022-10-16T04:36:41;101888.81;;;13.77;100.00
55077;BME280;40971;44.702;11.030;2022-10-16T04:39:06;101886.22;;;13.76;100.00
55077;BME280;40971;44.702;11.030;2022-10-16T04:41:32;101861.66;;;13.77;100.00
55077;BME280;40971;44.702;11.030;2022-10-16T04:43:57;101786.41;;;13.05;100.00
55077;BME280;40971;44.702;11.030;2022-10-16T04:46:23;101865.53;;;13.34;100.00
55077;BME280;40971;44.702;11.030;2022-10-16T04:48:48;101871.06;;;13.28;100.00
55077;BME280;40971;44.702;11.030;2022-10-16T04:51:13;101859.41;;;13.14;100.00
55077;BME280;40971;44.702;11.030;2022-10-16T04:53:39;101868.94;;;13.36;100.00
55077;BME280;40971;44.702;11.030;2022-10-16T04:56:04;101857.44;;;13.19;100.00
55077;BME280;40971;44.702;11.030;2022-10-16T04:58:30;101874.31;;;13.33;100.00
55077;BME280;40971;44.702;11.030;2022-10-16T05:00:55;101863.41;;;13.23;100.00
55077;BME280;40971;44.702;11.030;2022-10-16T05:03:21;101783.88;;;12.66;100.00
55077;BME280;40971;44.702;11.030;2022-10-16T05:05:46;101822.78;;;12.94;100.00
55077;BME280;40971;44.702;11.030;2022-10-16T05:08:13;101867.09;;;13.19;100.00
55077;BME280;40971;44.702;11.030;2022-10-16T05:10:41;101878.28;;;13.22;100.00
55077;BME280;40971;44.702;11.030;2022-10-16T05:13:07;101880.91;;;13.22;100.00
55077;BME280;40971;44.702;11.030;2022-10-16T05:15:32;101848.47;;;13.05;100.00
55077;BME280;40971;44.702;11.030;2022-10-16T05:17:58;101872.09;;;13.05;100.00
55077;BME280;40971;44.702;11.030;2022-10-16T05:20:23;101869.94;;;12.75;100.00
55077;BME280;40971;44.702;11.030;2022-10-16T05:22:49;101864.22;;;12.86;100.00
55077;BME280;40971;44.702;11.030;2022-10-16T05:25:14;101841.81;;;12.79;100.00
55077;BME280;40971;44.702;11.030;2022-10-16T05:27:40;101874.94;;;13.00;100.00
55077;BME280;40971;44.702;11.030;2022-10-16T05:30:06;101838.13;;;12.83;100.00
55077;BME280;40971;44.702;11.030;2022-10-16T05:32:33;101889.88;;;12.98;100.00
55077;BME280;40971;44.702;11.030;2022-10-16T05:35:01;101788.00;;;12.32;100.00
55077;BME280;40971;44.702;11.030;2022-10-16T05:37:27;101892.91;;;12.89;100.00
55077;BME280;40971;44.702;11.030;2022-10-16T05:39:52;101891.84;;;12.93;100.00
55077;BME280;40971;44.702;11.030;2022-10-16T05:42:18;101904.53;;;12.83;100.00
55077;BME280;40971;44.702;11.030;2022-10-16T05:44:44;101885.03;;;12.70;100.00
55077;BME280;40971;44.702;11.030;2022-10-16T05:47:09;101896.13;;;12.75;100.00
55077;BME280;40971;44.702;11.030;2022-10-16T05:49:36;101904.22;;;12.71;100.00
55077;BME280;40971;44.702;11.030;2022-10-16T05:52:01;101906.84;;;12.71;100.00
55077;BME280;40971;44.702;11.030;2022-10-16T05:54:27;101906.78;;;12.72;100.00
55077;BME280;40971;44.702;11.030;2022-10-16T05:56:52;101911.69;;;12.80;100.00
55077;BME280;40971;44.702;11.030;2022-10-16T05:59:18;101891.19;;;12.69;100.00
55077;BME280;40971;44.702;11.030;2022-10-16T06:01:43;101901.91;;;12.83;100.00
55077;BME280;40971;44.702;11.030;2022-10-16T06:04:09;101913.56;;;12.76;100.00
55077;BME280;40971;44.702;11.030;2022-10-16T06:06:34;101834.63;;;12.04;100.00
55077;BME280;40971;44.702;11.030;2022-10-16T06:09:02;101911.09;;;12.53;100.00
55077;BME280;40971;44.702;11.030;2022-10-16T06:11:29;101931.47;;;12.87;100.00
55077;BME280;40971;44.702;11.030;2022-10-16T06:13:57;101920.06;;;12.88;100.00
55077;BME280;40971;44.702;11.030;2022-10-16T06:16:24;101924.53;;;13.05;100.00
55077;BME280;40971;44.702;11.030;2022-10-16T06:18:54;101917.91;;;13.16;100.00
55077;BME280;40971;44.702;11.030;2022-10-16T06:21:23;101954.88;;;13.49;100.00
55077;BME280;40971;44.702;11.030;2022-10-16T06:23:52;101907.34;;;13.37;100.00
55077;BME280;40971;44.702;11.030;2022-10-16T06:26:20;101943.28;;;13.72;100.00
55077;BME280;40971;44.702;11.030;2022-10-16T06:28:46;101959.41;;;13.83;100.00
55077;BME280;40971;44.702;11.030;2022-10-16T06:31:13;101935.50;;;13.52;100.00
55077;BME280;40971;44.702;11.030;2022-10-16T06:33:38;101954.88;;;13.68;100.00
55077;BME280;40971;44.702;11.030;2022-10-16T06:36:13;101973.56;;;13.98;100.00
55077;BME280;40971;44.702;11.030;2022-10-16T06:38:39;101972.34;;;14.23;100.00
55077;BME280;40971;44.702;11.030;2022-10-16T06:41:06;101934.81;;;14.21;100.00
55077;BME280;40971;44.702;11.030;2022-10-16T06:43:33;101986.13;;;14.47;100.00
55077;BME280;40971;44.702;11.030;2022-10-16T06:46:01;101978.84;;;14.52;100.00
55077;BME280;40971;44.702;11.030;2022-10-16T06:48:27;101985.09;;;14.66;100.00
55077;BME280;40971;44.702;11.030;2022-10-16T06:51:02;101910.91;;;14.42;100.00
55077;BME280;40971;44.702;11.030;2022-10-16T06:53:30;101955.75;;;14.91;100.00
55077;BME280;40971;44.702;11.030;2022-10-16T06:55:56;101998.22;;;15.34;100.00
55077;BME280;40971;44.702;11.030;2022-10-16T06:58:22;101992.88;;;15.51;100.00
55077;BME280;40971;44.702;11.030;2022-10-16T07:00:48;101963.84;;;15.53;100.00
55077;BME280;40971;44.702;11.030;2022-10-16T07:03:14;102015.69;;;16.00;100.00
55077;BME280;40971;44.702;11.030;2022-10-16T07:05:41;101977.34;;;15.94;100.00
55077;BME280;40971;44.702;11.030;2022-10-16T07:08:07;102012.78;;;16.20;100.00
55077;BME280;40971;44.702;11.030;2022-10-16T07:10:33;101988.81;;;16.09;100.00
55077;BME280;40971;44.702;11.030;2022-10-16T07:12:58;102014.81;;;16.31;100.00
55077;BME280;40971;44.702;11.030;2022-10-16T07:15:25;101996.88;;;16.21;100.00
55077;BME280;40971;44.702;11.030;2022-10-16T07:17:50;102030.06;;;16.55;100.00
55077;BME280;40971;44.702;11.030;2022-10-16T07:20:16;102013.19;;;16.58;100.00
55077;BME280;40971;44.702;11.030;2022-10-16T07:22:41;102031.38;;;16.78;100.00
55077;BME280;40971;44.702;11.030;2022-10-16T07:25:07;102012.75;;;16.81;100.00
55077;BME280;40971;44.702;11.030;2022-10-16T07:27:33;102000.22;;;16.85;100.00
55077;BME280;40971;44.702;11.030;2022-10-16T07:29:59;102035.69;;;17.24;100.00
55077;BME280;40971;44.702;11.030;2022-10-16T07:32:24;102038.69;;;17.46;100.00
55077;BME280;40971;44.702;11.030;2022-10-16T07:34:51;102044.28;;;17.70;99.46
55077;BME280;40971;44.702;11.030;2022-10-16T07:37:17;102052.75;;;17.89;96.96
55077;BME280;40971;44.702;11.030;2022-10-16T07:39:42;102051.25;;;17.85;97.21
55077;BME280;40971;44.702;11.030;2022-10-16T07:42:08;102046.03;;;17.98;96.39
55077;BME280;40971;44.702;11.030;2022-10-16T07:44:33;102053.59;;;18.31;94.84
55077;BME280;40971;44.702;11.030;2022-10-16T07:46:58;102011.31;;;18.17;94.02
55077;BME280;40971;44.702;11.030;2022-10-16T07:49:24;102056.69;;;18.77;92.88
55077;BME280;40971;44.702;11.030;2022-10-16T07:51:49;102056.19;;;18.98;91.31
55077;BME280;40971;44.702;11.030;2022-10-16T07:54:15;102060.09;;;19.30;89.12
55077;BME280;40971;44.702;11.030;2022-10-16T07:56:40;102005.25;;;19.32;87.36
55077;BME280;40971;44.702;11.030;2022-10-16T07:59:06;102056.72;;;19.66;86.92
55077;BME280;40971;44.702;11.030;2022-10-16T08:01:31;102074.22;;;19.69;87.90
55077;BME280;40971;44.702;11.030;2022-10-16T08:03:57;102067.09;;;19.82;86.12
55077;BME280;40971;44.702;11.030;2022-10-16T08:06:22;102068.84;;;19.94;85.13
55077;BME280;40971;44.702;11.030;2022-10-16T08:08:48;102069.44;;;20.10;84.92
55077;BME280;40971;44.702;11.030;2022-10-16T08:11:14;102084.72;;;20.43;83.31
55077;BME280;40971;44.702;11.030;2022-10-16T08:13:41;102067.09;;;20.42;82.70
55077;BME280;40971;44.702;11.030;2022-10-16T08:16:07;102079.53;;;20.77;82.95
55077;BME280;40971;44.702;11.030;2022-10-16T08:18:38;102086.91;;;20.73;81.54
55077;BME280;40971;44.702;11.030;2022-10-16T08:21:05;102082.19;;;20.66;81.80
55077;BME280;40971;44.702;11.030;2022-10-16T08:23:31;102072.47;;;20.89;81.13
55077;BME280;40971;44.702;11.030;2022-10-16T08:26:03;102038.81;;;20.65;80.53
55077;BME280;40971;44.702;11.030;2022-10-16T08:28:28;102083.34;;;20.97;80.53
55077;BME280;40971;44.702;11.030;2022-10-16T08:30:54;102092.78;;;21.12;80.65
55077;BME280;40971;44.702;11.030;2022-10-16T08:33:21;102083.31;;;21.32;78.99
55077;BME280;40971;44.702;11.030;2022-10-16T08:35:51;102090.94;;;21.48;77.34
55077;BME280;40971;44.702;11.030;2022-10-16T08:38:19;102091.78;;;21.59;76.75
55077;BME280;40971;44.702;11.030;2022-10-16T08:40:44;102080.66;;;21.43;78.00
55077;BME280;40971;44.702;11.030;2022-10-16T08:43:25;102085.75;;;21.35;77.23
55077;BME280;40971;44.702;11.030;2022-10-16T08:46:23;102012.63;;;21.07;76.00
55077;BME280;40971;44.702;11.030;2022-10-16T08:48:57;102092.97;;;21.67;75.22
55077;BME280;40971;44.702;11.030;2022-10-16T08:51:26;102090.56;;;21.63;75.39
55077;BME280;40971;44.702;11.030;2022-10-16T08:54:12;102077.03;;;21.44;76.98
55077;BME280;40971;44.702;11.030;2022-10-16T08:56:39;102050.75;;;21.06;75.69
55077;BME280;40971;44.702;11.030;2022-10-16T08:59:09;102047.38;;;21.04;74.99
55077;BME280;40971;44.702;11.030;2022-10-16T09:01:39;102072.06;;;21.28;76.01
55077;BME280;40971;44.702;11.030;2022-10-16T09:10:29;102079.00;;;21.53;76.62
55077;BME280;40971;44.702;11.030;2022-10-16T09:13:28;102074.38;;;21.67;75.95
55077;BME280;40971;44.702;11.030;2022-10-16T09:16:08;102086.84;;;21.55;76.29
55077;BME280;40971;44.702;11.030;2022-10-16T09:21:44;102074.84;;;21.49;73.64
55077;BME280;40971;44.702;11.030;2022-10-16T09:24:21;102083.09;;;21.57;75.21
55077;BME280;40971;44.702;11.030;2022-10-16T09:26:49;102082.13;;;21.36;74.36
55077;BME280;40971;44.702;11.030;2022-10-16T09:29:16;102081.59;;;21.31;73.44
55077;BME280;40971;44.702;11.030;2022-10-16T09:31:42;102042.91;;;21.05;73.44
55077;BME280;40971;44.702;11.030;2022-10-16T09:34:32;102079.56;;;21.46;73.83
55077;BME280;40971;44.702;11.030;2022-10-16T09:36:59;102073.31;;;21.58;74.81
55077;BME280;40971;44.702;11.030;2022-10-16T09:39:26;102075.13;;;21.69;74.04
55077;BME280;40971;44.702;11.030;2022-10-16T09:41:52;102066.16;;;21.70;71.98
55077;BME280;40971;44.702;11.030;2022-10-16T09:44:27;102075.00;;;21.70;72.48
55077;BME280;40971;44.702;11.030;2022-10-16T09:47:12;102066.03;;;21.60;72.86
55077;BME280;40971;44.702;11.030;2022-10-16T09:49:51;102080.16;;;21.83;75.51
55077;BME280;40971;44.702;11.030;2022-10-16T09:52:18;102081.63;;;21.76;73.94
55077;BME280;40971;44.702;11.030;2022-10-16T09:54:51;102079.22;;;21.84;73.41
55077;BME280;40971;44.702;11.030;2022-10-16T09:57:17;102083.78;;;21.93;74.71
55077;BME280;40971;44.702;11.030;2022-10-16T09:59:47;102085.38;;;22.07;73.20
55077;BME280;40971;44.702;11.030;2022-10-16T10:02:15;102078.94;;;22.09;73.62
55077;BME280;40971;44.702;11.030;2022-10-16T10:04:48;102077.59;;;22.15;71.84
55077;BME280;40971;44.702;11.030;2022-10-16T10:07:25;102086.19;;;22.18;72.88
55077;BME280;40971;44.702;11.030;2022-10-16T10:09:51;102079.66;;;22.23;72.56
55077;BME280;40971;44.702;11.030;2022-10-16T10:12:23;102077.13;;;22.53;73.05
55077;BME280;40971;44.702;11.030;2022-10-16T10:14:51;102080.69;;;22.63;72.10
55077;BME280;40971;44.702;11.030;2022-10-16T10:17:25;102075.88;;;22.89;71.88
55077;BME280;40971;44.702;11.030;2022-10-16T10:20:18;102053.63;;;22.79;68.49
55077;BME280;40971;44.702;11.030;2022-10-16T10:22:46;102078.34;;;23.02;69.46
55077;BME280;40971;44.702;11.030;2022-10-16T10:33:29;102076.38;;;23.25;66.66
55077;BME280;40971;44.702;11.030;2022-10-16T10:44:16;102076.19;;;23.47;62.49
55077;BME280;40971;44.702;11.030;2022-10-16T10:46:51;102074.00;;;23.31;61.28
55077;BME280;40971;44.702;11.030;2022-10-16T10:54:57;102058.94;;;23.82;60.81
55077;BME280;40971;44.702;11.030;2022-10-16T10:57:41;102054.34;;;23.93;61.10
55077;BME280;40971;44.702;11.030;2022-10-16T11:03:13;102050.41;;;23.97;61.31
55077;BME280;40971;44.702;11.030;2022-10-16T11:05:50;102055.47;;;24.00;57.97
55077;BME280;40971;44.702;11.030;2022-10-16T11:08:42;102056.72;;;23.96;60.07
55077;BME280;40971;44.702;11.030;2022-10-16T11:11:24;102057.44;;;23.98;56.37
55077;BME280;40971;44.702;11.030;2022-10-16T11:14:02;102051.72;;;24.22;58.88
55077;BME280;40971;44.702;11.030;2022-10-16T11:16:33;102029.78;;;24.28;57.62
55077;BME280;40971;44.702;11.030;2022-10-16T11:21:42;102047.66;;;24.47;55.99
55077;BME280;40971;44.702;11.030;2022-10-16T11:27:08;102039.38;;;24.50;55.09
55077;BME280;40971;44.702;11.030;2022-10-16T11:29:39;102045.22;;;24.93;56.07
55077;BME280;40971;44.702;11.030;2022-10-16T11:32:19;102027.69;;;24.51;52.73
55077;BME280;40971;44.702;11.030;2022-10-16T11:34:52;101993.16;;;24.40;54.62
55077;BME280;40971;44.702;11.030;2022-10-16T11:37:25;102032.94;;;24.53;50.90
55077;BME280;40971;44.702;11.030;2022-10-16T11:39:54;102044.88;;;24.58;51.41
55077;BME280;40971;44.702;11.030;2022-10-16T11:42:49;102042.00;;;24.79;50.15
55077;BME280;40971;44.702;11.030;2022-10-16T11:45:36;101995.22;;;24.75;49.58
55077;BME280;40971;44.702;11.030;2022-10-16T11:48:18;102025.56;;;25.03;49.02
55077;BME280;40971;44.702;11.030;2022-10-16T11:51:05;102027.38;;;24.93;49.70
55077;BME280;40971;44.702;11.030;2022-10-16T11:53:46;102019.06;;;25.06;50.38
55077;BME280;40971;44.702;11.030;2022-10-16T11:56:18;101989.06;;;25.12;47.57
55077;BME280;40971;44.702;11.030;2022-10-16T11:59:00;102025.06;;;25.17;47.08
55077;BME280;40971;44.702;11.030;2022-10-16T12:01:38;102035.69;;;24.80;48.71
55077;BME280;40971;44.702;11.030;2022-10-16T12:07:32;102025.44;;;24.76;51.49
55077;BME280;40971;44.702;11.030;2022-10-16T12:09:53;101988.47;;;24.71;48.45
55077;BME280;40971;44.702;11.030;2022-10-16T12:12:37;102026.63;;;25.20;49.76
55077;BME280;40971;44.702;11.030;2022-10-16T12:17:44;102035.34;;;25.12;47.17
55077;BME280;40971;44.702;11.030;2022-10-16T12:22:47;102017.97;;;25.91;45.18
55077;BME280;40971;44.702;11.030;2022-10-16T12:27:55;102030.19;;;26.38;46.14
55077;BME280;40971;44.702;11.030;2022-10-16T12:30:24;102027.38;;;26.13;45.65
55077;BME280;40971;44.702;11.030;2022-10-16T12:32:56;102028.75;;;26.34;45.55
55077;BME280;40971;44.702;11.030;2022-10-16T12:35:30;102020.13;;;26.23;46.25
55077;BME280;40971;44.702;11.030;2022-10-16T12:40:58;101997.94;;;26.48;45.86
55077;BME280;40971;44.702;11.030;2022-10-16T12:43:36;102012.50;;;26.97;44.49
55077;BME280;40971;44.702;11.030;2022-10-16T12:46:06;102028.91;;;26.94;44.45
55077;BME280;40971;44.702;11.030;2022-10-16T12:48:45;102015.19;;;26.72;45.85
55077;BME280;40971;44.702;11.030;2022-10-16T12:54:11;102025.84;;;25.65;47.55
55077;BME280;40971;44.702;11.030;2022-10-16T12:57:03;102024.16;;;25.36;48.78
55077;BME280;40971;44.702;11.030;2022-10-16T13:05:40;102021.09;;;24.75;47.86
55077;BME280;40971;44.702;11.030;2022-10-16T13:11:01;102032.47;;;24.77;47.28
55077;BME280;40971;44.702;11.030;2022-10-16T13:22:14;102037.00;;;24.57;47.05
55077;BME280;40971;44.702;11.030;2022-10-16T13:25:18;102042.59;;;24.64;47.15
55077;BME280;40971;44.702;11.030;2022-10-16T13:28:00;102036.28;;;24.74;48.23
55077;BME280;40971;44.702;11.030;2022-10-16T13:30:53;102039.19;;;24.90;49.19
55077;BME280;40971;44.702;11.030;2022-10-16T13:35:57;102046.22;;;24.82;47.38
55077;BME280;40971;44.702;11.030;2022-10-16T13:38:25;102026.75;;;24.43;48.04
55077;BME280;40971;44.702;11.030;2022-10-16T13:43:49;102049.47;;;24.76;48.46
55077;BME280;40971;44.702;11.030;2022-10-16T13:46:16;102010.84;;;24.60;47.36
55077;BME280;40971;44.702;11.030;2022-10-16T13:48:43;102048.34;;;24.88;48.37
55077;BME280;40971;44.702;11.030;2022-10-16T13:51:18;102016.28;;;24.78;47.57
55077;BME280;40971;44.702;11.030;2022-10-16T13:53:44;102036.91;;;24.96;49.05
55077;BME280;40971;44.702;11.030;2022-10-16T13:56:15;102046.66;;;24.87;47.46
55077;BME280;40971;44.702;11.030;2022-10-16T13:58:41;102032.91;;;24.72;47.39
55077;BME280;40971;44.702;11.030;2022-10-16T14:01:20;102002.56;;;24.54;48.07
55077;BME280;40971;44.702;11.030;2022-10-16T14:03:49;102049.34;;;24.77;47.84
55077;BME280;40971;44.702;11.030;2022-10-16T14:06:18;102046.25;;;24.72;48.49
55077;BME280;40971;44.702;11.030;2022-10-16T14:09:08;102046.66;;;24.68;47.86
55077;BME280;40971;44.702;11.030;2022-10-16T14:12:00;102051.03;;;24.49;48.36
55077;BME280;40971;44.702;11.030;2022-10-16T14:14:34;102048.53;;;24.57;47.19
55077;BME280;40971;44.702;11.030;2022-10-16T14:17:02;102051.47;;;24.54;49.34
55077;BME280;40971;44.702;11.030;2022-10-16T14:19:29;102006.34;;;24.22;47.79
55077;BME280;40971;44.702;11.030;2022-10-16T14:21:55;102048.25;;;24.41;48.18
55077;BME280;40971;44.702;11.030;2022-10-16T14:24:36;102021.81;;;24.19;49.36
55077;BME280;40971;44.702;11.030;2022-10-16T14:27:02;102052.00;;;24.19;50.52